createdAt,value
2023-04-10T00:03:12.949Z,19.59
2023-04-10T00:08:35.026Z,19.56
2023-04-10T00:13:56.885Z,19.54
2023-04-10T00:19:18.731Z,19.51
2023-04-10T00:24:40.596Z,19.49
2023-04-10T00:30:02.982Z,19.48
2023-04-10T00:35:24.839Z,19.45
2023-04-10T00:40:46.698Z,19.42
2023-04-10T00:46:08.678Z,19.40
2023-04-10T00:51:31.607Z,19.39
2023-04-10T00:56:53.623Z,19.36
2023-04-10T01:02:15.993Z,19.35
2023-04-10T01:07:44.244Z,19.33
2023-04-10T01:13:08.734Z,19.31
2023-04-10T01:18:38.048Z,19.30
2023-04-10T01:24:24.496Z,19.28
2023-04-10T01:29:52.535Z,19.25
2023-04-10T01:35:16.876Z,19.24
2023-04-10T01:40:42.786Z,19.22
2023-04-10T01:46:05.706Z,19.22
2023-04-10T01:51:28.418Z,19.21
2023-04-10T01:56:50.468Z,19.20
2023-04-10T02:02:12.584Z,19.18
2023-04-10T02:07:42.681Z,19.17
2023-04-10T02:13:07.684Z,19.14
2023-04-10T02:18:32.374Z,19.14
2023-04-10T02:23:54.580Z,19.12
2023-04-10T02:29:17.180Z,19.12
2023-04-10T02:34:39.052Z,19.11
2023-04-10T02:40:00.994Z,19.08
2023-04-10T02:45:23.141Z,19.06
2023-04-10T02:50:46.907Z,19.05
2023-04-10T02:56:09.394Z,19.04
2023-04-10T03:01:31.440Z,19.03
2023-04-10T03:06:53.702Z,19.02
2023-04-10T03:12:15.771Z,18.99
2023-04-10T03:17:37.836Z,18.98
2023-04-10T03:23:00.978Z,18.98
2023-04-10T03:28:22.934Z,18.94
2023-04-10T03:33:44.969Z,18.94
2023-04-10T03:39:06.863Z,18.92
2023-04-10T03:44:28.670Z,18.90
2023-04-10T03:49:50.538Z,18.88
2023-04-10T03:55:12.500Z,18.88
2023-04-10T04:00:34.467Z,18.85
2023-04-10T04:05:56.548Z,18.86
2023-04-10T04:11:18.416Z,18.84
2023-04-10T04:16:40.301Z,18.82
2023-04-10T04:22:02.262Z,18.82
2023-04-10T04:27:24.197Z,18.80
2023-04-10T04:32:46.091Z,18.80
2023-04-10T04:38:07.991Z,18.77
2023-04-10T04:43:29.796Z,18.77
2023-04-10T04:48:51.646Z,18.76
2023-04-10T04:54:13.526Z,18.72
2023-04-10T04:59:35.708Z,18.72
2023-04-10T05:04:57.589Z,18.75
2023-04-10T05:10:21.226Z,18.88
2023-04-10T05:15:43.406Z,19.14
2023-04-10T05:21:05.455Z,19.38
2023-04-10T05:26:27.601Z,19.53
2023-04-10T05:31:50.637Z,19.58
2023-04-10T05:37:13.395Z,19.57
2023-04-10T05:42:35.228Z,19.56
2023-04-10T05:47:57.083Z,19.51
2023-04-10T05:53:21.446Z,19.47
2023-04-10T05:58:43.364Z,19.42
2023-04-10T06:04:05.341Z,19.36
2023-04-10T06:09:27.570Z,19.31
2023-04-10T06:14:49.456Z,19.27
2023-04-10T06:20:11.666Z,19.22
2023-04-10T06:25:33.511Z,19.18
2023-04-10T06:30:55.505Z,19.16
2023-04-10T06:36:18.129Z,19.11
2023-04-10T06:41:39.954Z,19.06
2023-04-10T06:47:01.805Z,19.05
2023-04-10T06:52:24.173Z,19.03
2023-04-10T06:57:46.095Z,19.07
2023-04-10T07:03:08.246Z,19.06
2023-04-10T07:08:30.231Z,18.96
2023-04-10T07:13:54.017Z,18.86
2023-04-10T07:19:16.230Z,18.84
2023-04-10T07:24:38.084Z,18.85
2023-04-10T07:29:59.926Z,18.95
2023-04-10T07:35:22.124Z,19.16
2023-04-10T07:40:43.940Z,19.45
2023-04-10T07:46:06.496Z,19.77
2023-04-10T07:51:29.879Z,20.09
2023-04-10T07:56:54.714Z,20.40
2023-04-10T08:02:16.762Z,20.65
2023-04-10T08:07:41.029Z,20.80
2023-04-10T08:13:02.865Z,20.85
2023-04-10T08:18:24.801Z,20.82
2023-04-10T08:23:47.296Z,20.72
2023-04-10T08:29:09.261Z,20.64
2023-04-10T08:34:31.159Z,20.53
2023-04-10T08:39:53.535Z,20.45
2023-04-10T08:45:15.975Z,20.35
2023-04-10T08:50:42.450Z,20.26
2023-04-10T08:56:05.806Z,20.17
2023-04-10T09:01:27.713Z,20.08
2023-04-10T09:06:49.641Z,20.02
2023-04-10T09:12:16.568Z,19.95
2023-04-10T09:17:39.248Z,19.91
2023-04-10T09:23:02.098Z,19.88
2023-04-10T09:28:23.997Z,19.83
2023-04-10T09:33:46.444Z,19.81
2023-04-10T09:39:10.705Z,19.80
2023-04-10T09:44:35.160Z,19.80
2023-04-10T09:50:01.032Z,19.78
2023-04-10T09:55:22.893Z,19.76
2023-04-10T10:00:49.953Z,19.75
2023-04-10T10:06:12.256Z,19.75
2023-04-10T10:11:35.794Z,19.75
2023-04-10T10:17:02.059Z,19.76
2023-04-10T10:22:26.493Z,19.77
2023-04-10T10:27:50.067Z,19.77
2023-04-10T10:33:14.272Z,19.78
2023-04-10T10:38:42.070Z,19.78
2023-04-10T10:44:13.750Z,19.78
2023-04-10T10:50:01.441Z,19.78
2023-04-10T10:55:23.284Z,19.77
2023-04-10T11:00:51.137Z,19.77
2023-04-10T11:06:17.436Z,19.75
2023-04-10T11:11:59.361Z,19.76
2023-04-10T11:17:49.222Z,19.75
2023-04-10T11:23:12.887Z,19.73
2023-04-10T11:28:39.677Z,19.67
2023-04-10T11:34:06.447Z,19.65
2023-04-10T11:39:28.649Z,19.61
2023-04-10T11:44:51.761Z,19.57
2023-04-10T11:50:14.883Z,19.55
2023-04-10T11:55:39.974Z,19.54
2023-04-10T12:01:04.419Z,19.53
2023-04-10T12:06:27.881Z,19.55
2023-04-10T12:12:03.766Z,19.56
2023-04-10T12:17:25.834Z,19.56
2023-04-10T12:22:48.341Z,19.54
2023-04-10T12:28:17.948Z,19.53
2023-04-10T12:33:39.821Z,19.48
2023-04-10T12:39:04.250Z,19.44
2023-04-10T12:44:26.192Z,19.40
2023-04-10T12:50:07.056Z,19.38
2023-04-10T12:55:31.978Z,19.34
2023-04-10T13:00:56.453Z,19.30
2023-04-10T13:06:18.428Z,19.32
2023-04-10T13:11:41.075Z,19.30
2023-04-10T13:17:02.931Z,19.31
2023-04-10T13:22:24.756Z,19.32
2023-04-10T13:27:46.595Z,19.34
2023-04-10T13:33:09.630Z,19.37
2023-04-10T13:38:31.678Z,19.38
2023-04-10T13:43:53.773Z,19.42
2023-04-10T13:49:18.201Z,19.45
2023-04-10T13:54:40.062Z,19.47
2023-04-10T14:00:02.194Z,19.46
2023-04-10T14:05:24.093Z,19.48
2023-04-10T14:10:50.912Z,19.48
2023-04-10T14:16:13.118Z,19.49
2023-04-10T14:21:35.281Z,19.51
2023-04-10T14:27:01.016Z,19.50
2023-04-10T14:32:23.153Z,19.57
2023-04-10T14:37:45.125Z,19.70
2023-04-10T14:43:07.569Z,19.94
2023-04-10T14:48:29.926Z,20.24
2023-04-10T14:53:52.525Z,20.50
2023-04-10T14:59:14.573Z,20.66
2023-04-10T15:04:36.614Z,20.73
2023-04-10T15:09:58.932Z,20.69
2023-04-10T15:15:20.836Z,20.65
2023-04-10T15:20:43.396Z,20.59
2023-04-10T15:26:05.537Z,20.52
2023-04-10T15:31:28.157Z,20.43
2023-04-10T15:36:50.093Z,20.35
2023-04-10T15:42:12.065Z,20.29
2023-04-10T15:47:33.958Z,20.22
2023-04-10T15:52:55.955Z,20.15
2023-04-10T15:58:17.808Z,20.12
2023-04-10T16:03:39.900Z,20.05
2023-04-10T16:09:02.171Z,19.97
2023-04-10T16:14:24.922Z,20.04
2023-04-10T16:19:46.960Z,20.15
2023-04-10T16:25:09.619Z,20.27
2023-04-10T16:30:31.529Z,20.37
2023-04-10T16:35:54.284Z,20.43
2023-04-10T16:41:21.094Z,20.57
2023-04-10T16:46:43.062Z,20.62
2023-04-10T16:52:04.962Z,20.60
2023-04-10T16:57:26.902Z,20.54
2023-04-10T17:02:49.504Z,20.47
2023-04-10T17:08:11.326Z,20.38
2023-04-10T17:13:34.264Z,20.32
2023-04-10T17:18:56.918Z,20.23
2023-04-10T17:24:19.043Z,20.15
2023-04-10T17:29:41.487Z,20.09
2023-04-10T17:35:03.437Z,20.02
2023-04-10T17:40:25.347Z,20.01
2023-04-10T17:45:47.304Z,20.07
2023-04-10T17:51:09.454Z,20.19
2023-04-10T17:56:32.023Z,20.31
2023-04-10T18:01:54.058Z,20.42
2023-04-10T18:07:16.207Z,20.51
2023-04-10T18:12:38.114Z,20.57
2023-04-10T18:17:59.965Z,20.64
2023-04-10T18:23:24.390Z,20.69
2023-04-10T18:28:46.583Z,20.72
2023-04-10T18:34:08.933Z,20.73
2023-04-10T18:39:30.989Z,20.79
2023-04-10T18:44:52.837Z,21.02
2023-04-10T18:50:14.767Z,21.29
2023-04-10T18:55:36.669Z,21.49
2023-04-10T19:00:58.632Z,21.63
2023-04-10T19:06:24.484Z,21.66
2023-04-10T19:11:46.422Z,21.67
2023-04-10T19:17:08.777Z,21.65
2023-04-10T19:22:33.110Z,21.62
2023-04-10T19:27:55.131Z,21.54
2023-04-10T19:33:17.491Z,21.44
2023-04-10T19:38:41.241Z,21.36
2023-04-10T19:44:03.116Z,21.26
2023-04-10T19:49:25.441Z,21.18
2023-04-10T19:54:48.131Z,21.08
2023-04-10T20:00:10.624Z,21.02
2023-04-10T20:05:32.546Z,20.96
2023-04-10T20:10:56.078Z,20.92
2023-04-10T20:16:19.156Z,20.89
2023-04-10T20:21:41.214Z,20.87
2023-04-10T20:27:03.390Z,20.84
2023-04-10T20:32:25.385Z,20.81
2023-04-10T20:37:47.693Z,20.76
2023-04-10T20:43:12.444Z,20.73
2023-04-10T20:48:34.551Z,20.71
2023-04-10T20:53:56.463Z,20.69
2023-04-10T20:59:18.705Z,20.68
2023-04-10T21:04:40.561Z,20.66
2023-04-10T21:10:02.513Z,20.62
2023-04-10T21:15:24.454Z,20.57
2023-04-10T21:20:46.339Z,20.53
2023-04-10T21:26:08.312Z,20.44
2023-04-10T21:31:30.163Z,20.37
2023-04-10T21:36:51.976Z,20.28
2023-04-10T21:42:13.834Z,20.23
2023-04-10T21:47:35.704Z,20.18
2023-04-10T21:52:57.660Z,20.14
2023-04-10T21:58:19.601Z,20.13
2023-04-10T22:03:41.639Z,20.08
2023-04-10T22:09:03.662Z,20.08
2023-04-10T22:14:26.015Z,20.03
2023-04-10T22:19:47.856Z,19.99
2023-04-10T22:25:09.815Z,19.95
2023-04-10T22:30:31.652Z,19.93
2023-04-10T22:35:53.952Z,19.89
2023-04-10T22:41:15.916Z,19.87
2023-04-10T22:46:38.015Z,19.84
2023-04-10T22:52:00.128Z,19.82
2023-04-10T22:57:21.990Z,19.79
2023-04-10T23:02:44.070Z,19.78
2023-04-10T23:08:06.000Z,19.74
2023-04-10T23:13:27.828Z,19.70
2023-04-10T23:18:50.921Z,19.67
2023-04-10T23:24:12.732Z,19.64
2023-04-10T23:29:35.136Z,19.62
2023-04-10T23:34:56.974Z,19.59
2023-04-10T23:40:19.971Z,19.58
2023-04-10T23:45:41.809Z,19.53
2023-04-10T23:51:05.452Z,19.51
2023-04-10T23:56:29.470Z,19.48
